Time;durP1;ratioP1;P1;durP2;ratioP2;P2;SDS_P1;SDS_P2;PMS_P1;PMS_P2;Temp;Humidity;BMP_temperature;BMP_pressure;BME280_temperature;BME280_humidity;BME280_pressure;Samples;Min_cycle;Max_cycle;Signal;HPM_P1;HPM_P2
2024/02/05 00:02:05;;;;;;;2.10;2.00;;;;;;;;;;5042162;28;20205;-69
2024/02/05 00:04:33;;;;;;;2.10;1.70;;;;;;;;;;5041349;28;20203;-69
2024/02/05 00:07:02;;;;;;;2.45;1.77;;;;;;;;;;5042694;28;20196;-69
2024/02/05 00:09:31;;;;;;;3.25;2.25;;;;;;;;;;5046263;28;20266;-69
2024/02/05 00:12:00;;;;;;;3.08;2.03;;;;;;;;;;5033575;28;20201;-69
2024/02/05 00:14:28;;;;;;;2.45;2.35;;;;;;;;;;5046765;28;20582;-67
2024/02/05 00:16:56;;;;;;;2.38;2.17;;;;;;;;;;5043805;28;20204;-67
2024/02/05 00:19:24;;;;;;;3.03;2.83;;;;;;;;;;5035905;28;20211;-67
2024/02/05 00:21:52;;;;;;;2.03;1.85;;;;;;;;;;5038723;28;20577;-67
2024/02/05 00:24:21;;;;;;;2.35;2.17;;;;;;;;;;5044268;28;20227;-67
2024/02/05 00:26:50;;;;;;;3.13;2.22;;;;;;;;;;5044315;28;20211;-67
2024/02/05 00:29:18;;;;;;;1.98;1.88;;;;;;;;;;5036487;28;20217;-67
2024/02/05 00:31:47;;;;;;;1.63;1.52;;;;;;;;;;5041633;28;20201;-67
2024/02/05 00:34:16;;;;;;;1.52;1.42;;;;;;;;;;5049470;28;20200;-68
2024/02/05 00:36:45;;;;;;;4.00;1.90;;;;;;;;;;5049845;28;20211;-68
2024/02/05 00:39:14;;;;;;;1.85;1.10;;;;;;;;;;5051195;28;20196;-67
2024/02/05 00:41:42;;;;;;;2.78;1.65;;;;;;;;;;5049062;28;20218;-67
2024/02/05 00:44:11;;;;;;;1.77;1.67;;;;;;;;;;5049947;28;20260;-67
2024/02/05 00:46:40;;;;;;;2.63;1.80;;;;;;;;;;5045564;28;20249;-67
2024/02/05 00:49:08;;;;;;;1.50;1.40;;;;;;;;;;5045800;28;20220;-67
2024/02/05 00:51:36;;;;;;;1.90;1.40;;;;;;;;;;5035654;28;20201;-67
2024/02/05 00:54:06;;;;;;;1.50;1.40;;;;;;;;;;5035881;28;20565;-67
2024/02/05 00:56:35;;;;;;;1.65;1.55;;;;;;;;;;5040825;28;20415;-67
2024/02/05 00:59:04;;;;;;;2.05;1.85;;;;;;;;;;5049363;28;20511;-67
2024/02/05 01:01:34;;;;;;;2.35;2.08;;;;;;;;;;5046950;28;20215;-66
2024/02/05 01:04:02;;;;;;;2.45;1.88;;;;;;;;;;5029621;28;20209;-67
2024/02/05 01:06:30;;;;;;;2.20;2.10;;;;;;;;;;5045524;28;20204;-67
2024/02/05 01:08:59;;;;;;;1.80;1.70;;;;;;;;;;5047215;28;20581;-67
2024/02/05 01:11:27;;;;;;;1.90;1.80;;;;;;;;;;5038333;28;20655;-67
2024/02/05 01:13:55;;;;;;;2.60;1.83;;;;;;;;;;5048123;28;20211;-67
2024/02/05 01:16:23;;;;;;;2.42;2.33;;;;;;;;;;5045041;28;20701;-67
2024/02/05 01:18:53;;;;;;;2.33;2.10;;;;;;;;;;5048820;28;20204;-66
2024/02/05 01:21:22;;;;;;;2.08;1.40;;;;;;;;;;5047426;28;20784;-67
2024/02/05 01:23:50;;;;;;;2.95;1.73;;;;;;;;;;5029505;28;20202;-67
2024/02/05 01:26:18;;;;;;;1.67;1.58;;;;;;;;;;5035275;28;20246;-67
2024/02/05 01:28:46;;;;;;;1.92;1.83;;;;;;;;;;5041427;28;20219;-67
2024/02/05 01:31:14;;;;;;;2.30;2.10;;;;;;;;;;5033743;28;20192;-66
2024/02/05 01:33:43;;;;;;;2.08;1.88;;;;;;;;;;5041026;28;20205;-67
2024/02/05 01:36:12;;;;;;;5.90;2.38;;;;;;;;;;5041984;28;20193;-67
2024/02/05 01:38:40;;;;;;;3.45;1.80;;;;;;;;;;5047349;28;20198;-67
2024/02/05 01:41:10;;;;;;;2.20;2.00;;;;;;;;;;5033442;28;20193;-67
2024/02/05 01:43:38;;;;;;;2.60;1.98;;;;;;;;;;5041229;28;20218;-67
2024/02/05 01:46:06;;;;;;;2.20;2.00;;;;;;;;;;5048945;28;20197;-67
2024/02/05 01:48:35;;;;;;;2.55;2.35;;;;;;;;;;5039774;28;20221;-67
2024/02/05 01:51:04;;;;;;;2.20;2.05;;;;;;;;;;5045516;28;20200;-67
2024/02/05 01:53:34;;;;;;;2.55;2.35;;;;;;;;;;5036072;28;20205;-67
2024/02/05 01:56:03;;;;;;;3.50;2.28;;;;;;;;;;5045722;28;20690;-67
2024/02/05 01:58:31;;;;;;;3.13;1.83;;;;;;;;;;5046620;28;20205;-67
2024/02/05 02:00:59;;;;;;;4.32;2.95;;;;;;;;;;5044697;28;20196;-66
2024/02/05 02:03:28;;;;;;;2.45;2.25;;;;;;;;;;5047670;28;20212;-66
2024/02/05 02:05:56;;;;;;;5.00;2.50;;;;;;;;;;5047320;28;20207;-67
2024/02/05 02:08:26;;;;;;;2.42;2.22;;;;;;;;;;5045380;28;20223;-67
2024/02/05 02:10:56;;;;;;;4.72;2.17;;;;;;;;;;5039017;28;20188;-67
2024/02/05 02:13:25;;;;;;;4.90;2.67;;;;;;;;;;5044297;28;20202;-67
2024/02/05 02:15:54;;;;;;;6.07;2.30;;;;;;;;;;5038540;28;20622;-66
2024/02/05 02:18:23;;;;;;;3.10;2.10;;;;;;;;;;5036975;28;20679;-67
2024/02/05 02:20:53;;;;;;;3.20;2.35;;;;;;;;;;5028015;28;20196;-66
2024/02/05 02:23:26;;;;;;;3.40;2.45;;;;;;;;;;5037935;28;20218;-67
2024/02/05 02:25:55;;;;;;;4.10;2.55;;;;;;;;;;5047389;28;20188;-67
2024/02/05 02:28:23;;;;;;;2.35;2.15;;;;;;;;;;5047473;28;20201;-66
2024/02/05 02:30:51;;;;;;;1.92;1.83;;;;;;;;;;5046486;28;20200;-67
2024/02/05 02:33:23;;;;;;;3.38;1.95;;;;;;;;;;5028079;28;20212;-67
2024/02/05 02:35:54;;;;;;;6.10;2.50;;;;;;;;;;5041273;28;20227;-67
2024/02/05 02:38:27;;;;;;;8.80;2.45;;;;;;;;;;5027723;28;20202;-67
2024/02/05 02:40:57;;;;;;;7.43;2.30;;;;;;;;;;5026304;28;20192;-67
2024/02/05 02:43:25;;;;;;;3.28;2.28;;;;;;;;;;5033662;28;20204;-67
2024/02/05 02:45:54;;;;;;;3.47;1.83;;;;;;;;;;5044373;28;20203;-67
2024/02/05 02:48:22;;;;;;;2.20;2.10;;;;;;;;;;5027714;28;20213;-66
2024/02/05 02:50:50;;;;;;;3.50;1.88;;;;;;;;;;5027801;28;20197;-67
2024/02/05 02:53:18;;;;;;;3.05;2.00;;;;;;;;;;5027511;28;20204;-67
2024/02/05 02:55:49;;;;;;;2.83;2.60;;;;;;;;;;5030363;28;20201;-66
2024/02/05 02:58:18;;;;;;;2.42;2.00;;;;;;;;;;5027753;28;20225;-67
2024/02/05 03:00:46;;;;;;;3.60;1.77;;;;;;;;;;5025897;28;20207;-66
2024/02/05 03:03:15;;;;;;;2.60;2.05;;;;;;;;;;5038458;28;20814;-66
2024/02/05 03:05:43;;;;;;;5.32;1.98;;;;;;;;;;5046233;28;20196;-66
2024/02/05 03:08:11;;;;;;;4.28;2.30;;;;;;;;;;5047162;28;20204;-66
2024/02/05 03:10:39;;;;;;;9.18;2.60;;;;;;;;;;5032994;28;20590;-67
2024/02/05 03:13:09;;;;;;;19.45;8.70;;;;;;;;;;5045952;28;20209;-65
2024/02/05 03:15:37;;;;;;;4.38;3.63;;;;;;;;;;5036290;28;20207;-65
2024/02/05 03:18:05;;;;;;;10.27;9.18;;;;;;;;;;5047907;28;20657;-66
2024/02/05 03:20:35;;;;;;;73.85;40.20;;;;;;;;;;5048860;28;20207;-64
2024/02/05 03:23:04;;;;;;;11.50;6.40;;;;;;;;;;5053013;28;20300;-64
2024/02/05 03:25:32;;;;;;;28.95;15.25;;;;;;;;;;5051585;28;20200;-66
2024/02/05 03:28:01;;;;;;;36.25;20.10;;;;;;;;;;5042007;28;20280;-64
2024/02/05 03:30:31;;;;;;;57.63;33.95;;;;;;;;;;5043267;28;20574;-64
2024/02/05 03:32:59;;;;;;;8.23;2.88;;;;;;;;;;5048296;28;20208;-64
2024/02/05 03:35:28;;;;;;;102.20;55.03;;;;;;;;;;5049216;28;20197;-65
2024/02/05 03:37:56;;;;;;;7.07;3.10;;;;;;;;;;5052230;28;20794;-64
2024/02/05 03:40:24;;;;;;;3.10;2.80;;;;;;;;;;5052356;28;20207;-65
2024/02/05 03:42:53;;;;;;;3.10;2.60;;;;;;;;;;5035089;28;20253;-64
2024/02/05 03:45:21;;;;;;;18.15;11.38;;;;;;;;;;5043499;28;20197;-65
2024/02/05 03:47:52;;;;;;;6.25;2.15;;;;;;;;;;5052574;28;20195;-65
2024/02/05 03:50:20;;;;;;;3.95;2.90;;;;;;;;;;5052143;28;20209;-64
2024/02/05 03:52:47;;;;;;;3.45;2.13;;;;;;;;;;5052039;28;20193;-65
2024/02/05 03:55:15;;;;;;;10.07;2.17;;;;;;;;;;5050418;28;20211;-65
2024/02/05 03:57:44;;;;;;;2.47;2.28;;;;;;;;;;5045128;28;20221;-64
2024/02/05 04:00:13;;;;;;;3.40;2.28;;;;;;;;;;5045668;28;20740;-65
2024/02/05 04:02:41;;;;;;;6.45;2.60;;;;;;;;;;5051364;28;20713;-64
2024/02/05 04:05:11;;;;;;;4.50;2.05;;;;;;;;;;5053459;28;20264;-65
2024/02/05 04:07:39;;;;;;;4.93;2.33;;;;;;;;;;5050743;28;20208;-64
2024/02/05 04:10:08;;;;;;;4.18;2.10;;;;;;;;;;5036751;28;20213;-64
2024/02/05 04:12:36;;;;;;;2.80;1.90;;;;;;;;;;5046444;28;20205;-65
2024/02/05 04:15:04;;;;;;;3.35;1.98;;;;;;;;;;5036843;28;20260;-65
2024/02/05 04:17:34;;;;;;;7.70;1.73;;;;;;;;;;5052245;28;20268;-68
2024/02/05 04:20:02;;;;;;;5.22;1.95;;;;;;;;;;5045416;28;20343;-64
2024/02/05 04:22:32;;;;;;;2.03;1.92;;;;;;;;;;5054473;28;20307;-64
2024/02/05 04:25:00;;;;;;;3.63;1.80;;;;;;;;;;5051839;28;20552;-65
2024/02/05 04:27:28;;;;;;;2.28;1.90;;;;;;;;;;5051596;28;20208;-66
2024/02/05 04:29:56;;;;;;;2.20;1.77;;;;;;;;;;5050504;28;20601;-65
2024/02/05 04:32:25;;;;;;;2.65;1.80;;;;;;;;;;5048753;28;20196;-64
2024/02/05 04:34:53;;;;;;;2.95;2.75;;;;;;;;;;5056672;28;20727;-68
2024/02/05 04:37:21;;;;;;;5.13;3.42;;;;;;;;;;5054385;28;20284;-66
2024/02/05 04:39:51;;;;;;;2.85;2.65;;;;;;;;;;5048646;28;20847;-64
2024/02/05 04:42:19;;;;;;;4.43;2.20;;;;;;;;;;5034125;28;20209;-66
2024/02/05 04:44:47;;;;;;;3.78;2.47;;;;;;;;;;5046866;28;20287;-66
2024/02/05 04:47:15;;;;;;;2.38;2.00;;;;;;;;;;5054794;28;20215;-66
2024/02/05 04:49:45;;;;;;;2.38;2.17;;;;;;;;;;5056344;28;20224;-66
2024/02/05 04:52:13;;;;;;;1.60;1.45;;;;;;;;;;5054808;28;20208;-64
2024/02/05 04:54:42;;;;;;;3.10;2.20;;;;;;;;;;5054992;28;20200;-64
2024/02/05 04:57:11;;;;;;;2.78;2.17;;;;;;;;;;5047997;28;20276;-64
2024/02/05 04:59:39;;;;;;;4.95;2.30;;;;;;;;;;5046705;28;20419;-65
2024/02/05 05:02:07;;;;;;;2.75;1.85;;;;;;;;;;5038976;28;20246;-63
2024/02/05 05:04:36;;;;;;;3.75;1.92;;;;;;;;;;5043809;28;20267;-63
2024/02/05 05:07:05;;;;;;;4.85;1.90;;;;;;;;;;5053237;28;20271;-63
2024/02/05 05:09:33;;;;;;;4.45;1.85;;;;;;;;;;5040971;28;20212;-64
2024/02/05 05:12:01;;;;;;;3.72;2.42;;;;;;;;;;5036243;28;20558;-63
2024/02/05 05:14:31;;;;;;;1.73;1.63;;;;;;;;;;5045866;28;20202;-63
2024/02/05 05:16:59;;;;;;;1.80;1.63;;;;;;;;;;5050391;28;20246;-63
2024/02/05 05:19:27;;;;;;;3.50;2.13;;;;;;;;;;5055087;28;20205;-63
2024/02/05 05:21:56;;;;;;;2.67;2.47;;;;;;;;;;5055459;28;20443;-63
2024/02/05 05:24:24;;;;;;;4.57;1.30;;;;;;;;;;5038207;28;20914;-64
2024/02/05 05:26:53;;;;;;;3.55;1.95;;;;;;;;;;5055383;28;20664;-63
2024/02/05 05:29:21;;;;;;;1.75;1.65;;;;;;;;;;5039836;28;20217;-63
2024/02/05 05:31:50;;;;;;;2.70;2.22;;;;;;;;;;5035923;28;20225;-63
2024/02/05 05:34:19;;;;;;;2.85;1.55;;;;;;;;;;5049567;28;20232;-63
2024/02/05 05:36:47;;;;;;;3.88;1.90;;;;;;;;;;5048852;28;20652;-63
2024/02/05 05:39:15;;;;;;;2.25;2.15;;;;;;;;;;5055573;28;20295;-65
2024/02/05 05:41:43;;;;;;;2.85;2.10;;;;;;;;;;5054376;28;20293;-64
2024/02/05 05:44:12;;;;;;;5.68;2.58;;;;;;;;;;5053118;28;20203;-64
2024/02/05 05:46:40;;;;;;;3.92;2.00;;;;;;;;;;5050684;28;20197;-63
2024/02/05 05:49:09;;;;;;;3.20;2.03;;;;;;;;;;5054028;28;20620;-64
2024/02/05 05:51:38;;;;;;;2.00;1.85;;;;;;;;;;5046337;28;20217;-63
2024/02/05 05:54:06;;;;;;;3.60;2.00;;;;;;;;;;5034542;28;20209;-63
2024/02/05 05:56:34;;;;;;;1.60;1.50;;;;;;;;;;5046081;28;20307;-63
2024/02/05 05:59:03;;;;;;;2.00;1.90;;;;;;;;;;5033721;28;20211;-65
2024/02/05 06:01:35;;;;;;;2.22;2.03;;;;;;;;;;5040220;28;20207;-65
2024/02/05 06:04:03;;;;;;;2.55;1.98;;;;;;;;;;5052741;28;20267;-63
2024/02/05 06:06:33;;;;;;;1.75;1.65;;;;;;;;;;5046662;28;20234;-63
2024/02/05 06:09:04;;;;;;;4.75;1.80;;;;;;;;;;5037556;28;20441;-64
2024/02/05 06:11:33;;;;;;;3.25;2.17;;;;;;;;;;5042689;28;20205;-64
2024/02/05 06:14:01;;;;;;;1.77;1.63;;;;;;;;;;5037599;28;20228;-63
2024/02/05 06:16:29;;;;;;;3.65;2.45;;;;;;;;;;5035139;28;20292;-65
2024/02/05 06:18:57;;;;;;;2.00;1.90;;;;;;;;;;5046539;28;20215;-65
2024/02/05 06:21:26;;;;;;;2.53;1.58;;;;;;;;;;5040696;28;20290;-64
2024/02/05 06:23:55;;;;;;;1.85;1.60;;;;;;;;;;5034351;28;20202;-64
2024/02/05 06:26:24;;;;;;;3.33;1.67;;;;;;;;;;5039732;28;20673;-64
2024/02/05 06:28:52;;;;;;;3.75;2.10;;;;;;;;;;5051663;28;20215;-63
2024/02/05 06:31:20;;;;;;;3.42;2.10;;;;;;;;;;5040341;28;20217;-64
2024/02/05 06:33:48;;;;;;;2.60;2.38;;;;;;;;;;5034621;28;20296;-64
2024/02/05 06:36:17;;;;;;;2.00;1.80;;;;;;;;;;5039907;28;20201;-63
2024/02/05 06:38:45;;;;;;;2.00;1.90;;;;;;;;;;5053322;28;20871;-65
2024/02/05 06:41:15;;;;;;;2.30;2.20;;;;;;;;;;5042233;28;20257;-65
2024/02/05 06:43:45;;;;;;;2.10;1.90;;;;;;;;;;5044618;28;20275;-63
2024/02/05 06:46:14;;;;;;;6.50;2.10;;;;;;;;;;5052608;28;20252;-63
2024/02/05 06:48:42;;;;;;;1.98;1.88;;;;;;;;;;5044473;28;20303;-64
2024/02/05 06:51:11;;;;;;;2.03;1.92;;;;;;;;;;5047583;28;20666;-63
2024/02/05 06:53:39;;;;;;;1.65;1.55;;;;;;;;;;5037775;28;20252;-63
2024/02/05 06:56:07;;;;;;;2.42;2.33;;;;;;;;;;5046177;28;20204;-64
2024/02/05 06:58:37;;;;;;;1.63;1.52;;;;;;;;;;5041509;28;20283;-65
2024/02/05 07:01:05;;;;;;;2.03;1.88;;;;;;;;;;5043962;28;20192;-64
2024/02/05 07:03:33;;;;;;;4.63;2.10;;;;;;;;;;5048008;28;20200;-64
2024/02/05 07:06:02;;;;;;;2.15;2.00;;;;;;;;;;5050570;28;20197;-63
2024/02/05 07:08:30;;;;;;;2.22;1.92;;;;;;;;;;5050869;28;20210;-65
2024/02/05 07:10:58;;;;;;;2.85;1.98;;;;;;;;;;5045774;28;20320;-68
2024/02/05 07:13:27;;;;;;;2.03;1.90;;;;;;;;;;5029886;28;20197;-63
2024/02/05 07:16:00;;;;;;;2.65;2.45;;;;;;;;;;5032714;28;20192;-65
2024/02/05 07:18:29;;;;;;;2.83;2.08;;;;;;;;;;5044051;28;20205;-67
2024/02/05 07:21:01;;;;;;;1.85;1.75;;;;;;;;;;5045213;28;20223;-63
2024/02/05 07:23:29;;;;;;;2.05;1.95;;;;;;;;;;5048335;28;20283;-66
2024/02/05 07:25:57;;;;;;;3.85;1.80;;;;;;;;;;5041390;28;20215;-65
2024/02/05 07:28:25;;;;;;;2.10;1.95;;;;;;;;;;5046362;28;20204;-64
2024/02/05 07:30:55;;;;;;;2.35;2.15;;;;;;;;;;5042815;28;20221;-63
2024/02/05 07:33:24;;;;;;;2.15;1.88;;;;;;;;;;5045335;28;20209;-65
2024/02/05 07:35:52;;;;;;;2.05;1.83;;;;;;;;;;5041184;28;20210;-64
2024/02/05 07:38:21;;;;;;;3.40;2.10;;;;;;;;;;5046033;28;20189;-65
2024/02/05 07:40:49;;;;;;;3.80;2.38;;;;;;;;;;5036898;28;20205;-66
2024/02/05 07:43:17;;;;;;;6.47;2.03;;;;;;;;;;5049388;28;20196;-65
2024/02/05 07:45:46;;;;;;;2.92;2.72;;;;;;;;;;5046047;28;20200;-63
2024/02/05 07:48:14;;;;;;;2.95;2.20;;;;;;;;;;5052032;28;20347;-64
2024/02/05 07:50:43;;;;;;;2.15;2.03;;;;;;;;;;5043749;28;20230;-64
2024/02/05 07:53:12;;;;;;;2.10;1.90;;;;;;;;;;5033987;28;20727;-64
2024/02/05 07:55:40;;;;;;;2.50;2.10;;;;;;;;;;5043311;28;20189;-64
2024/02/05 07:58:09;;;;;;;2.05;1.75;;;;;;;;;;5043209;28;20237;-66
2024/02/05 08:00:37;;;;;;;2.72;2.50;;;;;;;;;;5042863;28;20210;-64
2024/02/05 08:03:06;;;;;;;3.08;2.60;;;;;;;;;;5032974;28;20666;-65
2024/02/05 08:05:34;;;;;;;2.97;2.15;;;;;;;;;;5040009;28;20200;-65
2024/02/05 08:08:04;;;;;;;2.40;2.20;;;;;;;;;;5045457;28;20201;-64
2024/02/05 08:10:33;;;;;;;3.15;2.00;;;;;;;;;;5040614;28;20623;-65
2024/02/05 08:13:04;;;;;;;3.13;2.17;;;;;;;;;;5042677;28;20221;-65
2024/02/05 08:15:32;;;;;;;1.90;1.80;;;;;;;;;;5050387;28;20242;-64
2024/02/05 08:18:01;;;;;;;2.55;2.05;;;;;;;;;;5048275;28;20655;-64
2024/02/05 08:20:29;;;;;;;2.15;2.00;;;;;;;;;;5047688;28;20251;-65
2024/02/05 08:22:58;;;;;;;2.85;1.98;;;;;;;;;;5047727;28;20228;-65
2024/02/05 08:25:29;;;;;;;2.08;1.92;;;;;;;;;;5041003;28;20197;-65
2024/02/05 08:27:58;;;;;;;2.17;2.08;;;;;;;;;;5046863;28;20196;-66
2024/02/05 08:30:26;;;;;;;3.55;2.03;;;;;;;;;;5038880;28;20185;-65
2024/02/05 08:32:54;;;;;;;2.25;2.13;;;;;;;;;;5046118;28;20219;-64
2024/02/05 08:35:22;;;;;;;4.28;2.17;;;;;;;;;;5047947;28;20197;-66
2024/02/05 08:37:50;;;;;;;2.90;2.00;;;;;;;;;;5046360;28;20197;-64
2024/02/05 08:40:19;;;;;;;4.93;1.95;;;;;;;;;;5040797;28;20215;-64
2024/02/05 08:42:48;;;;;;;2.28;2.08;;;;;;;;;;5047927;28;20571;-64
2024/02/05 08:45:18;;;;;;;3.53;1.92;;;;;;;;;;5034647;28;20212;-64
2024/02/05 08:47:47;;;;;;;3.40;3.10;;;;;;;;;;5047437;28;20246;-65
2024/02/05 08:50:15;;;;;;;2.50;2.30;;;;;;;;;;5050613;28;20200;-66
2024/02/05 08:52:43;;;;;;;3.72;2.10;;;;;;;;;;5050802;28;20612;-65
2024/02/05 08:55:12;;;;;;;4.35;2.78;;;;;;;;;;5050489;28;20214;-65
2024/02/05 08:57:41;;;;;;;1.80;1.70;;;;;;;;;;5048807;28;20237;-64
2024/02/05 09:00:12;;;;;;;3.50;2.10;;;;;;;;;;5041761;28;20257;-67
2024/02/05 09:02:40;;;;;;;4.90;2.50;;;;;;;;;;5048478;28;20598;-64
2024/02/05 09:05:08;;;;;;;2.13;1.83;;;;;;;;;;5031203;28;20205;-64
2024/02/05 09:07:37;;;;;;;3.80;1.90;;;;;;;;;;5043942;28;20574;-64
2024/02/05 09:10:07;;;;;;;3.47;2.05;;;;;;;;;;5047542;28;20552;-63
2024/02/05 09:12:35;;;;;;;2.92;2.50;;;;;;;;;;5032083;28;20266;-64
2024/02/05 09:15:04;;;;;;;2.40;2.20;;;;;;;;;;5045431;28;20203;-65
2024/02/05 09:17:35;;;;;;;2.00;1.85;;;;;;;;;;5050821;28;20272;-65
2024/02/05 09:20:07;;;;;;;5.63;2.13;;;;;;;;;;5045272;28;20195;-65
2024/02/05 09:22:35;;;;;;;3.55;2.33;;;;;;;;;;5048265;28;20340;-65
2024/02/05 09:25:03;;;;;;;1.90;1.80;;;;;;;;;;5043346;28;20246;-64
2024/02/05 09:27:32;;;;;;;2.88;2.40;;;;;;;;;;5043075;28;20195;-64
2024/02/05 09:30:00;;;;;;;3.30;2.35;;;;;;;;;;5045440;28;20680;-66
2024/02/05 09:32:28;;;;;;;5.13;2.00;;;;;;;;;;5042428;28;20226;-66
2024/02/05 09:34:58;;;;;;;2.90;2.47;;;;;;;;;;5039065;28;20207;-65
2024/02/05 09:37:26;;;;;;;3.15;2.22;;;;;;;;;;5039821;28;20215;-66
2024/02/05 09:39:55;;;;;;;2.67;2.08;;;;;;;;;;5043479;28;20576;-65
2024/02/05 09:42:23;;;;;;;6.88;3.28;;;;;;;;;;5045102;28;20718;-65
2024/02/05 09:44:52;;;;;;;3.22;2.63;;;;;;;;;;5046340;28;20208;-63
2024/02/05 09:47:20;;;;;;;4.53;2.65;;;;;;;;;;5051840;28;20275;-65
2024/02/05 09:49:48;;;;;;;6.60;2.67;;;;;;;;;;5035943;28;20219;-66
2024/02/05 09:52:18;;;;;;;3.58;2.60;;;;;;;;;;5038935;28;20223;-65
2024/02/05 09:54:47;;;;;;;4.47;2.15;;;;;;;;;;5043788;28;20207;-64
2024/02/05 09:57:18;;;;;;;6.80;2.78;;;;;;;;;;5030798;28;20223;-64
2024/02/05 09:59:46;;;;;;;7.05;2.90;;;;;;;;;;5042035;28;20189;-63
2024/02/05 10:02:16;;;;;;;3.53;2.25;;;;;;;;;;5032175;28;20197;-64
2024/02/05 10:04:45;;;;;;;3.83;2.80;;;;;;;;;;5043306;28;20196;-63
2024/02/05 10:07:14;;;;;;;6.22;2.35;;;;;;;;;;5042771;28;20219;-65
2024/02/05 10:09:44;;;;;;;3.35;2.17;;;;;;;;;;5047529;28;20282;-64
2024/02/05 10:12:13;;;;;;;4.13;2.90;;;;;;;;;;5049775;28;20216;-64
2024/02/05 10:14:42;;;;;;;2.78;2.50;;;;;;;;;;5031915;28;20197;-65
2024/02/05 10:17:11;;;;;;;8.25;2.22;;;;;;;;;;5041582;28;20210;-65
2024/02/05 10:19:39;;;;;;;5.80;2.92;;;;;;;;;;5048953;28;20663;-64
2024/02/05 10:22:07;;;;;;;2.63;2.40;;;;;;;;;;5043502;28;20225;-66
2024/02/05 10:24:40;;;;;;;3.75;2.47;;;;;;;;;;5052531;28;20203;-63
2024/02/05 10:27:09;;;;;;;7.90;2.85;;;;;;;;;;5050818;28;20691;-63
2024/02/05 10:29:38;;;;;;;3.15;2.22;;;;;;;;;;5052428;28;20787;-62
2024/02/05 10:32:07;;;;;;;8.45;3.05;;;;;;;;;;5052178;28;20773;-63
2024/02/05 10:34:36;;;;;;;6.38;2.60;;;;;;;;;;5049529;28;20189;-64
2024/02/05 10:37:10;;;;;;;3.88;3.45;;;;;;;;;;5036574;28;20204;-64
2024/02/05 10:39:38;;;;;;;3.72;2.70;;;;;;;;;;5035259;28;20203;-66
2024/02/05 10:42:06;;;;;;;5.65;2.22;;;;;;;;;;5033181;28;20296;-64
2024/02/05 10:44:37;;;;;;;3.33;2.92;;;;;;;;;;5044633;28;20189;-63
2024/02/05 10:47:06;;;;;;;4.57;2.60;;;;;;;;;;5036067;28;20189;-64
2024/02/05 10:49:34;;;;;;;5.30;3.35;;;;;;;;;;5043283;28;20200;-64
2024/02/05 10:52:03;;;;;;;9.15;2.70;;;;;;;;;;5039736;28;20354;-64
2024/02/05 10:54:33;;;;;;;4.18;2.30;;;;;;;;;;5049911;28;20275;-61
2024/02/05 10:57:01;;;;;;;5.00;2.30;;;;;;;;;;5056333;28;20275;-63
2024/02/05 10:59:30;;;;;;;4.15;2.33;;;;;;;;;;5046070;28;20282;-63
2024/02/05 11:02:03;;;;;;;8.38;2.58;;;;;;;;;;5046375;28;20440;-67
2024/02/05 11:04:32;;;;;;;7.63;3.72;;;;;;;;;;5036796;28;20253;-66
2024/02/05 11:07:00;;;;;;;6.45;2.60;;;;;;;;;;5037042;28;20193;-64
2024/02/05 11:09:29;;;;;;;5.07;3.05;;;;;;;;;;5055529;28;20256;-66
2024/02/05 11:12:01;;;;;;;3.83;2.83;;;;;;;;;;5054155;28;20295;-64
2024/02/05 11:14:33;;;;;;;5.97;3.55;;;;;;;;;;5056869;28;20280;-64
2024/02/05 11:17:03;;;;;;;3.78;3.13;;;;;;;;;;5052500;28;20241;-64
2024/02/05 11:19:32;;;;;;;9.68;3.88;;;;;;;;;;5038572;28;20248;-64
2024/02/05 11:22:01;;;;;;;7.15;2.95;;;;;;;;;;5047639;28;20303;-64
2024/02/05 11:24:31;;;;;;;2.90;2.70;;;;;;;;;;5032732;28;20710;-62
2024/02/05 11:26:59;;;;;;;9.95;2.67;;;;;;;;;;5037028;28;20627;-65
2024/02/05 11:29:32;;;;;;;4.05;2.90;;;;;;;;;;5037148;28;20850;-63
2024/02/05 11:32:00;;;;;;;6.82;3.60;;;;;;;;;;5045934;28;20182;-64
2024/02/05 11:34:34;;;;;;;6.50;3.23;;;;;;;;;;5053851;28;20268;-65
2024/02/05 11:37:05;;;;;;;7.57;2.97;;;;;;;;;;5052311;28;20587;-67
2024/02/05 11:39:33;;;;;;;9.68;3.92;;;;;;;;;;5050495;28;20241;-63
2024/02/05 11:42:07;;;;;;;4.90;2.60;;;;;;;;;;5039936;28;20276;-65
2024/02/05 11:44:35;;;;;;;7.40;3.45;;;;;;;;;;5048808;28;20667;-68
2024/02/05 11:47:05;;;;;;;7.78;4.00;;;;;;;;;;5047854;28;20284;-64
2024/02/05 11:49:34;;;;;;;6.10;3.33;;;;;;;;;;5038743;28;20209;-64
2024/02/05 11:52:03;;;;;;;5.33;3.10;;;;;;;;;;5045257;28;20666;-63
2024/02/05 11:54:31;;;;;;;13.23;4.83;;;;;;;;;;5042975;28;20677;-63
2024/02/05 11:57:00;;;;;;;6.63;4.50;;;;;;;;;;5044083;28;20613;-64
2024/02/05 11:59:28;;;;;;;9.40;4.68;;;;;;;;;;5050922;28;20684;-63
2024/02/05 12:01:56;;;;;;;13.75;4.75;;;;;;;;;;5039821;28;20276;-65
2024/02/05 12:04:25;;;;;;;11.02;5.60;;;;;;;;;;5045619;28;20197;-65
2024/02/05 12:06:55;;;;;;;6.10;3.92;;;;;;;;;;5044299;28;20674;-66
2024/02/05 12:09:23;;;;;;;8.87;4.10;;;;;;;;;;5044166;28;20264;-65
2024/02/05 12:11:52;;;;;;;8.70;4.27;;;;;;;;;;5048112;28;20685;-65
2024/02/05 12:14:20;;;;;;;5.45;4.18;;;;;;;;;;5053665;28;21233;-64
2024/02/05 12:16:49;;;;;;;11.27;4.47;;;;;;;;;;5044577;28;20236;-67
2024/02/05 12:19:22;;;;;;;7.07;3.95;;;;;;;;;;5060746;28;20248;-66
2024/02/05 12:21:50;;;;;;;5.68;4.15;;;;;;;;;;5060603;28;20292;-67
2024/02/05 12:24:20;;;;;;;9.93;5.13;;;;;;;;;;5059093;28;20267;-67
2024/02/05 12:26:48;;;;;;;8.52;5.03;;;;;;;;;;5053262;28;20189;-65
2024/02/05 12:29:23;;;;;;;7.05;3.97;;;;;;;;;;5050150;28;20283;-65
2024/02/05 12:31:53;;;;;;;4.97;3.97;;;;;;;;;;5044066;28;20202;-66
2024/02/05 12:34:21;;;;;;;7.20;4.43;;;;;;;;;;5043674;28;20223;-64
2024/02/05 12:36:49;;;;;;;11.32;5.43;;;;;;;;;;5052141;28;20714;-65
2024/02/05 12:39:19;;;;;;;6.40;5.17;;;;;;;;;;5045659;28;20291;-65
2024/02/05 12:41:47;;;;;;;11.37;5.73;;;;;;;;;;5050399;28;20619;-66
2024/02/05 12:44:16;;;;;;;11.90;5.40;;;;;;;;;;5053074;28;21016;-66
2024/02/05 12:46:44;;;;;;;8.13;5.20;;;;;;;;;;5057956;28;20694;-67
2024/02/05 12:49:12;;;;;;;10.43;6.00;;;;;;;;;;5050497;28;20658;-67
2024/02/05 12:51:42;;;;;;;10.00;6.83;;;;;;;;;;5056990;28;20717;-66
2024/02/05 12:54:12;;;;;;;10.53;6.03;;;;;;;;;;5064851;28;20781;-67
2024/02/05 12:56:43;;;;;;;12.63;6.00;;;;;;;;;;5055726;28;20796;-65
2024/02/05 12:59:12;;;;;;;5.93;5.27;;;;;;;;;;5038799;28;21195;-66
2024/02/05 13:01:40;;;;;;;8.63;7.00;;;;;;;;;;5051577;28;20682;-65
2024/02/05 13:04:08;;;;;;;13.80;6.40;;;;;;;;;;5057103;28;20697;-65
2024/02/05 13:06:37;;;;;;;6.47;5.65;;;;;;;;;;5052685;28;20715;-64
2024/02/05 13:09:08;;;;;;;8.57;6.20;;;;;;;;;;5050733;28;20253;-64
2024/02/05 13:11:36;;;;;;;6.80;5.40;;;;;;;;;;5048336;28;20703;-64
2024/02/05 13:14:07;;;;;;;6.67;5.90;;;;;;;;;;5051555;28;20678;-64
2024/02/05 13:16:36;;;;;;;13.50;6.10;;;;;;;;;;5041584;28;20619;-65
2024/02/05 13:19:04;;;;;;;9.20;6.17;;;;;;;;;;5041306;28;20691;-65
2024/02/05 13:21:32;;;;;;;10.37;6.67;;;;;;;;;;5042412;28;20646;-67
2024/02/05 13:24:00;;;;;;;6.10;5.47;;;;;;;;;;5047212;28;21212;-66
2024/02/05 13:26:28;;;;;;;9.07;6.13;;;;;;;;;;5043451;28;20642;-67
2024/02/05 13:28:57;;;;;;;12.63;6.67;;;;;;;;;;5048189;28;20649;-65
2024/02/05 13:31:26;;;;;;;8.53;6.83;;;;;;;;;;5045524;28;20582;-64
2024/02/05 13:33:55;;;;;;;11.30;7.27;;;;;;;;;;5045726;28;20655;-66
2024/02/05 13:36:23;;;;;;;9.70;8.17;;;;;;;;;;5040842;28;20715;-65
2024/02/05 13:38:52;;;;;;;10.83;9.60;;;;;;;;;;5053187;28;20615;-66
2024/02/05 13:41:23;;;;;;;11.83;8.47;;;;;;;;;;5051680;28;20654;-65
2024/02/05 13:43:51;;;;;;;9.67;7.77;;;;;;;;;;5038716;28;20600;-65
2024/02/05 13:46:19;;;;;;;10.68;8.00;;;;;;;;;;5030216;28;20725;-65
2024/02/05 13:48:48;;;;;;;10.23;9.20;;;;;;;;;;5047352;28;20606;-67
2024/02/05 13:51:17;;;;;;;9.60;7.93;;;;;;;;;;5036316;28;20996;-66
2024/02/05 13:53:45;;;;;;;8.53;7.90;;;;;;;;;;5052552;28;20738;-64
2024/02/05 13:56:13;;;;;;;10.57;7.57;;;;;;;;;;5043690;28;20686;-64
2024/02/05 13:58:41;;;;;;;9.07;7.77;;;;;;;;;;5051561;28;20615;-64
2024/02/05 14:01:10;;;;;;;12.30;8.47;;;;;;;;;;5053694;28;21174;-65
2024/02/05 14:03:39;;;;;;;9.20;8.50;;;;;;;;;;5052448;28;20608;-66
2024/02/05 14:06:08;;;;;;;10.63;9.63;;;;;;;;;;5054901;28;20706;-65
2024/02/05 14:08:37;;;;;;;11.93;10.00;;;;;;;;;;5056343;28;20745;-67
2024/02/05 14:11:05;;;;;;;10.73;9.73;;;;;;;;;;5057277;28;20739;-67
2024/02/05 14:13:33;;;;;;;12.73;10.37;;;;;;;;;;5060201;28;20703;-64
2024/02/05 14:16:01;;;;;;;11.10;10.40;;;;;;;;;;5061632;28;20693;-64
2024/02/05 14:18:30;;;;;;;17.20;10.67;;;;;;;;;;5062338;28;20699;-67
2024/02/05 14:20:58;;;;;;;19.37;10.20;;;;;;;;;;5052919;28;20747;-64
2024/02/05 14:23:27;;;;;;;11.60;9.90;;;;;;;;;;5055899;28;20841;-66
2024/02/05 14:25:56;;;;;;;10.50;9.50;;;;;;;;;;5052764;28;20734;-67
2024/02/05 14:28:24;;;;;;;12.53;11.27;;;;;;;;;;5055809;28;20683;-65
2024/02/05 14:30:55;;;;;;;11.50;10.60;;;;;;;;;;5059486;28;20699;-66
2024/02/05 14:33:24;;;;;;;11.13;10.33;;;;;;;;;;5057369;28;20687;-68
2024/02/05 14:35:52;;;;;;;10.77;9.97;;;;;;;;;;5056632;28;20738;-65
2024/02/05 14:38:20;;;;;;;11.60;10.60;;;;;;;;;;5051528;28;20605;-65
2024/02/05 14:40:50;;;;;;;14.80;10.80;;;;;;;;;;5054658;28;20711;-64
2024/02/05 14:43:19;;;;;;;13.13;10.63;;;;;;;;;;5052680;28;21084;-66
2024/02/05 14:45:47;;;;;;;12.70;11.75;;;;;;;;;;5050975;28;20843;-63
2024/02/05 14:48:15;;;;;;;13.50;10.70;;;;;;;;;;5048191;28;20284;-64
2024/02/05 14:50:44;;;;;;;12.60;11.73;;;;;;;;;;5053625;28;20714;-64